Latest Weather Observations for Newdegate

IDW60801

Issued at 7:05 pm WST Saturday 22 November 2014 (issued every 30 minutes, with the page automatically refreshed every 10 minutes)

About weather observations | Map of weather stations | Latest weather observations for WA | Other Formats
Station Details ID: 010692 Name: NEWDEGATE RESEARCH STATION Lat: -33.11 Lon: 118.84 Height: 320.0 m
Data from the previous 72 hours. | See also: Recent months at Newdegate
Date/Time
WST
Temp
°C
App
Temp
°C
Dew
Point
Rel
Hum
%
Delta-T
°C
Wind Press
QNH
hPa
Press
MSL
hPa
Rain
since 9 am
mm
Dir
 
Spd
km/h
Gust
km/h
Spd
kts
Gust
kts
22/07:00pm 20.0 16.2 4.1 35 7.8 W 13 19 7 10 1011.3 1010.4 0.0
22/06:30pm 21.4 17.2 3.6 31 8.7 W 15 26 8 14 1011.2 1010.3 0.0
22/06:00pm 22.6 18.1 4.2 30 9.2 W 17 22 9 12 1010.8 1009.9 0.0
22/05:30pm 22.9 18.0 3.9 29 9.4 W 19 30 10 16 1010.5 1009.6 0.0
22/05:00pm 23.4 18.8 3.9 28 9.7 W 17 24 9 13 1010.3 1009.3 0.0
22/04:30pm 23.5 19.1 4.5 29 9.6 W 17 32 9 17 1010.4 1009.4 0.0
22/04:00pm 24.6 21.0 4.9 28 10.1 WNW 13 20 7 11 1010.4 1009.4 0.0
22/03:30pm 24.2 19.0 3.5 26 10.3 WNW 20 26 11 14 1010.6 1009.7 0.0
22/03:00pm 24.1 18.4 5.0 29 9.7 W 24 33 13 18 1010.8 1009.9 0.0
22/02:30pm 23.1 18.3 4.6 30 9.3 WSW 19 26 10 14 1011.0 1010.1 0.0
22/02:00pm 24.6 20.0 5.4 29 9.9 W 19 30 10 16 1011.2 1010.3 0.0
22/01:30pm 23.8 19.4 4.7 29 9.7 W 17 26 9 14 1011.4 1010.5 0.0
22/01:00pm 22.7 18.2 4.2 30 9.2 W 17 26 9 14 1011.7 1010.8 0.0
22/12:30pm 22.6 18.9 4.6 31 9.0 W 13 20 7 11 1011.8 1010.9 0.0
22/12:00pm 22.5 17.9 5.4 33 8.7 WSW 19 26 10 14 1012.0 1011.1 0.0
22/11:30am 20.9 17.2 4.5 34 8.1 WNW 13 24 7 13 1012.5 1011.5 0.0
22/11:00am 20.1 16.5 5.0 37 7.5 W 13 22 7 12 1012.7 1011.7 0.0
22/10:30am 19.8 16.4 5.8 40 7.0 W 13 26 7 14 1013.1 1012.1 0.0
22/10:00am 18.3 14.5 5.8 44 6.2 SW 15 20 8 11 1013.2 1012.3 0.0
22/09:30am 18.3 14.5 5.8 44 6.2 SSW 15 22 8 12 1013.3 1012.4 0.0
22/09:00am 17.3 13.1 5.6 46 5.8 WSW 17 26 9 14 1013.3 1012.4 0.0
22/08:30am 16.8 13.0 6.0 49 5.3 WSW 15 24 8 13 1013.4 1012.5 0.0
22/08:00am 16.6 12.5 6.4 51 5.1 WSW 17 22 9 12 1013.3 1012.4 0.0
22/07:30am 16.5 12.8 6.1 50 5.1 WSW 15 24 8 13 1013.2 1012.3 0.0
22/07:00am 15.0 10.8 7.5 61 3.8 SW 19 26 10 14 1013.0 1012.0 0.0
22/06:30am 14.5 12.1 8.5 67 3.1 WSW 11 17 6 9 1012.7 1011.7 0.0
22/06:00am 14.0 11.3 9.0 72 2.6 WSW 13 20 7 11 1012.5 1011.5 0.0
22/05:30am 13.6 12.3 9.8 78 2.0 SW 7 11 4 6 1012.1 1011.2 0.0
22/05:00am 13.4 11.6 9.6 78 2.0 SSW 9 13 5 7 1011.8 1010.9 0.0
22/04:30am 13.2 11.4 9.6 79 1.9 SSW 9 11 5 6 1011.4 1010.5 0.0
22/04:00am 13.2 11.1 9.6 79 1.9 SSW 11 13 6 7 1011.1 1010.2 0.0
22/03:30am 13.2 11.1 9.8 80 1.8 SSW 11 15 6 8 1011.0 1010.1 0.0
22/03:00am 12.7 10.1 9.5 81 1.7 SW 13 17 7 9 1010.8 1009.9 0.0
22/02:30am 13.0 9.7 9.4 79 1.9 SSW 17 22 9 12 1010.6 1009.7 0.0
22/02:00am 13.4 10.9 9.6 78 2.0 SW 13 17 7 9 1010.6 1009.7 0.0
22/01:30am 13.1 10.9 9.4 78 1.9 SW 11 15 6 8 1010.7 1009.8 0.0
22/01:00am 12.9 10.9 8.6 75 2.2 SW 9 13 5 7 1010.8 1009.9 0.0
22/12:30am 13.3 10.5 7.1 66 3.1 SW 11 13 6 7 1011.0 1010.1 0.0
22/12:00am 14.1 11.0 7.2 63 3.4 WSW 13 17 7 9 1011.0 1010.1 0.0
 
Date/Time
WST
Temp
°C
App
Temp
°C
Dew
Point
Rel
Hum
%
Delta-T
°C
Wind Press
QNH
hPa
Press
MSL
hPa
Rain
since 9 am
mm
Dir
 
Spd
km/h
Gust
km/h
Spd
kts
Gust
kts
21/11:30pm 13.7 11.2 6.6 62 3.5 WSW 9 13 5 7 1010.9 1010.0 0.0
21/11:00pm 14.5 11.6 6.3 58 4.0 W 11 15 6 8 1010.9 1010.0 0.0
21/10:30pm 15.5 12.9 6.0 53 4.7 W 9 13 5 7 1010.9 1010.0 0.0
21/10:00pm 16.5 13.1 6.1 50 5.2 W 13 19 7 10 1010.9 1010.0 0.0
21/09:30pm 17.1 13.7 6.0 48 5.5 W 13 22 7 12 1010.8 1009.9 0.0
21/09:00pm 17.1 14.5 6.3 49 5.4 W 9 17 5 9 1010.8 1009.9 0.0
21/08:30pm 17.7 15.0 5.6 45 6.0 W 9 13 5 7 1010.5 1009.6 0.0
21/08:00pm 18.3 15.2 5.5 43 6.3 WSW 11 17 6 9 1010.1 1009.1 0.0
21/07:30pm 19.4 15.4 5.1 39 7.1 WSW 15 22 8 12 1009.7 1008.7 0.0
21/07:00pm 20.8 16.5 5.2 36 7.8 WSW 17 26 9 14 1009.5 1008.5 0.0
21/06:30pm 22.0 16.5 4.1 31 8.8 W 22 32 12 17 1009.4 1008.4 0.0
21/06:00pm 23.7 19.2 4.1 28 9.8 W 17 30 9 16 1008.7 1007.8 0.0
21/05:30pm 24.6 19.1 3.8 26 10.4 W 22 39 12 21 1008.3 1007.4 0.0
21/05:00pm 25.1 19.5 3.7 25 10.7 W 22 37 12 20 1008.0 1007.1 0.0
21/04:30pm 25.5 18.8 3.5 24 11.0 WNW 28 43 15 23 1008.0 1007.1 0.0
21/04:00pm 26.0 19.8 4.5 25 11.0 WNW 26 43 14 23 1007.8 1006.9 0.0
21/03:30pm 26.2 21.1 4.1 24 11.2 W 20 37 11 20 1007.7 1006.7 0.0
21/03:00pm 26.0 20.1 3.9 24 11.2 W 24 37 13 20 1007.8 1006.9 0.0
21/02:30pm 25.6 19.1 4.7 26 10.7 WNW 28 44 15 24 1008.0 1007.1 0.0
21/02:00pm 25.2 19.2 5.4 28 10.3 WNW 26 44 14 24 1008.2 1007.3 0.0
21/01:30pm 25.9 19.6 5.5 27 10.6 WNW 28 41 15 22 1008.3 1007.4 0.0
21/01:00pm 25.7 20.8 5.3 27 10.6 W 20 33 11 18 1008.4 1007.5 0.0
21/12:30pm 25.6 19.1 4.7 26 10.7 WNW 28 41 15 22 1008.9 1008.0 0.0
21/12:00pm 25.9 19.9 5.5 27 10.6 W 26 37 14 20 1009.2 1008.2 0.0
21/11:30am 24.6 18.7 5.9 30 9.7 W 26 41 14 22 1009.4 1008.4 0.0
21/11:00am 23.6 18.8 7.3 35 8.6 W 22 33 12 18 1009.8 1008.8 0.0
21/10:30am 23.4 18.6 9.0 40 7.9 W 24 37 13 20 1010.2 1009.2 0.0
21/10:00am 22.0 16.3 8.5 42 7.2 W 28 39 15 21 1010.3 1009.3 0.0
21/09:30am 20.1 15.1 8.1 46 6.3 W 24 35 13 19 1010.4 1009.4 0.0
21/09:00am 19.8 14.7 9.1 50 5.7 W 26 37 14 20 1010.3 1009.3 0.0
21/08:30am 19.5 14.6 10.0 54 5.2 W 26 39 14 21 1010.4 1009.4 0.0
21/08:00am 18.9 14.8 11.5 62 4.1 W 24 35 13 19 1010.5 1009.6 0.0
21/07:30am 17.3 13.7 12.0 71 3.0 WNW 22 35 12 19 1010.5 1009.6 0.0
21/07:00am 16.4 13.6 11.3 72 2.8 WNW 17 30 9 16 1010.4 1009.4 0.0
21/06:30am 15.9 12.8 11.5 75 2.4 WNW 19 26 10 14 1010.1 1009.1 0.0
21/06:00am 14.7 12.6 11.1 79 1.9 NW 13 19 7 10 1009.8 1008.8 0.0
21/05:30am 13.1 11.9 10.3 83 1.5 WNW 7 9 4 5 1009.7 1008.7 0.0
21/05:00am 12.8 10.7 9.8 82 1.6 NW 11 15 6 8 1009.3 1008.3 0.0
21/04:30am 13.0 10.9 9.6 80 1.8 NW 11 17 6 9 1009.3 1008.3 0.0
21/04:00am 12.9 10.7 9.4 79 1.8 NW 11 15 6 8 1009.2 1008.2 0.0
21/03:30am 13.0 11.0 8.7 75 2.2 NW 9 11 5 6 1009.3 1008.3 0.0
21/03:00am 13.7 11.8 9.0 73 2.4 NW 9 13 5 7 1009.3 1008.3 0.0
21/02:30am 14.2 11.6 9.2 72 2.6 NW 13 17 7 9 1009.3 1008.3 0.0
21/02:00am 13.9 12.0 8.9 72 2.6 NW 9 11 5 6 1009.4 1008.4 0.0
21/01:30am 14.1 11.7 8.5 69 2.9 NW 11 19 6 10 1009.7 1008.7 0.0
21/01:00am 14.6 12.2 8.5 67 3.1 WNW 11 19 6 10 1009.9 1008.9 0.0
21/12:30am 15.2 12.3 8.2 63 3.6 WNW 13 19 7 10 1010.0 1009.0 0.0
21/12:00am 15.4 12.4 7.9 61 3.8 W 13 19 7 10 1010.4 1009.4 0.0
 
Date/Time
WST
Temp
°C
App
Temp
°C
Dew
Point
Rel
Hum
%
Delta-T
°C
Wind Press
QNH
hPa
Press
MSL
hPa
Rain
since 9 am
mm
Dir
 
Spd
km/h
Gust
km/h
Spd
kts
Gust
kts
20/11:30pm 15.2 13.0 8.0 62 3.7 W 9 19 5 10 1010.7 1009.8 0.0
20/11:00pm 15.3 12.7 7.6 60 3.9 W 11 15 6 8 1011.0 1010.1 0.0
20/10:30pm 16.2 12.8 7.7 57 4.3 W 15 24 8 13 1011.1 1010.2 0.0
20/10:00pm 16.6 12.9 7.8 56 4.5 W 17 24 9 13 1011.2 1010.3 0.0
20/09:30pm 17.3 13.6 7.9 54 4.8 W 17 26 9 14 1011.2 1010.3 0.0
20/09:00pm 18.4 14.2 7.5 49 5.6 W 19 28 10 15 1010.9 1010.0 0.0
20/08:30pm 19.0 15.0 6.8 45 6.2 W 17 28 9 15 1010.8 1009.9 0.0
20/08:00pm 19.3 16.0 6.4 43 6.6 W 13 20 7 11 1010.4 1009.4 0.0
20/07:30pm 20.2 16.1 6.2 40 7.1 W 17 30 9 16 1010.0 1009.0 0.0
20/07:00pm 20.8 16.7 7.8 43 6.8 W 19 35 10 19 1009.8 1008.8 0.0
20/06:30pm 21.6 16.4 7.4 40 7.4 W 24 33 13 18 1009.6 1008.6 0.0
20/06:00pm 22.5 17.5 8.2 40 7.7 W 24 43 13 23 1009.3 1008.3 0.0
20/05:30pm 22.9 17.0 9.0 41 7.6 W 30 44 16 24 1008.9 1008.0 0.0
20/05:02pm 23.8 18.7 10.5 43 7.5 W 28 48 15 26 1008.6 1007.7 0.0
20/05:00pm 23.9 18.3 10.2 42 7.7 W 30 48 16 26 1008.6 1007.7 0.0
20/04:30pm 26.6 21.0 8.6 32 9.9 W 28 44 15 24 1008.3 1007.4 0.0
20/04:00pm 25.6 19.9 6.8 30 10.0 WNW 26 43 14 23 1008.3 1007.4 0.0
20/03:30pm 25.8 19.9 5.9 28 10.4 W 26 39 14 21 1008.3 1007.4 0.0
20/03:00pm 26.9 21.4 5.8 26 11.1 WNW 24 39 13 21 1008.7 1007.8 0.0
20/02:30pm 27.1 20.9 6.0 26 11.1 W 28 48 15 26 1009.2 1008.2 0.0
20/02:07pm 27.0 20.5 6.4 27 10.9 W 30 50 16 27 1009.6 1008.6 0.0
20/02:00pm 27.8 21.4 7.1 27 11.2 W 30 46 16 25 1009.6 1008.6 0.0
20/01:35pm 27.3 21.3 7.2 28 10.8 W 28 54 15 29 1009.7 1008.7 0.0
20/01:30pm 26.7 21.5 7.2 29 10.5 W 24 43 13 23 1009.8 1008.8 0.0
20/01:00pm 26.8 20.2 7.8 30 10.3 W 32 48 17 26 1009.8 1008.8 0.0
20/12:32pm 26.2 20.3 7.3 30 10.2 W 28 52 15 28 1010.3 1009.3 0.0
20/12:30pm 26.3 20.9 7.8 31 10.0 W 26 52 14 28 1010.2 1009.2 0.0
20/12:00pm 25.7 19.8 7.3 31 9.9 WNW 28 48 15 26 1010.6 1009.7 0.0
20/11:59am 25.9 20.0 7.5 31 9.9 WNW 28 48 15 26 1010.6 1009.7 0.0
20/11:30am 25.9 20.4 7.5 31 9.9 W 26 43 14 23 1010.7 1009.8 0.0
20/11:00am 25.4 19.9 7.5 32 9.6 WNW 26 37 14 20 1011.2 1010.3 0.0
20/10:30am 24.7 18.8 7.4 33 9.2 NW 28 39 15 21 1011.6 1010.7 0.0
20/10:10am 23.8 17.9 7.4 35 8.7 WNW 28 46 15 25 1011.8 1010.9 0.0
20/10:00am 23.1 18.4 7.6 37 8.2 WNW 22 44 12 24 1011.9 1011.0 0.0
20/09:30am 22.1 17.1 7.9 40 7.5 W 24 37 13 20 1012.5 1011.5 0.0
20/09:00am 21.8 17.3 8.7 43 7.0 W 22 30 12 16 1012.8 1011.8 0.2
20/08:30am 20.6 17.9 10.4 52 5.6 WNW 15 20 8 11 1012.8 1011.8 0.2
20/08:00am 19.2 16.7 11.0 59 4.5 NNW 15 24 8 13 1013.0 1012.0 0.2
20/07:30am 17.4 15.0 12.5 73 2.8 NW 17 20 9 11 1013.0 1012.0 0.2
20/07:00am 14.7 13.0 12.4 86 1.3 NNW 13 20 7 11 1013.0 1012.0 0.2
20/06:30am 13.9 12.5 12.3 90 0.9 N 11 17 6 9 1013.0 1012.0 0.2
20/06:00am 13.1 11.2 11.7 91 0.8 N 13 19 7 10 1012.9 1011.9 0.2
20/05:30am 12.7 12.0 11.3 91 0.8 NNE 6 9 3 5 1012.6 1011.6 0.2
20/05:00am 12.0 10.9 10.6 91 0.7 NNE 7 9 4 5 1012.6 1011.6 0.2
20/04:30am 10.1 9.8 8.5 90 0.8 CALM 0 4 0 2 1012.6 1011.6 0.2
20/04:00am 10.2 9.1 8.6 90 0.8 N 4 7 2 4 1012.9 1011.9 0.2
20/03:30am 10.3 9.3 8.7 90 0.8 NNW 4 6 2 3 1013.2 1012.3 0.2
20/03:00am 10.5 10.3 8.9 90 0.8 CALM 0 0 0 0 1013.4 1012.5 0.2
20/02:30am 10.5 10.3 8.9 90 0.8 CALM 0 0 0 0 1013.4 1012.5 0.2
20/02:00am 9.4 8.9 7.7 89 0.8 CALM 0 0 0 0 1013.7 1012.8 0.2
20/01:30am 10.1 9.7 8.2 88 0.9 CALM 0 0 0 0 1013.9 1013.0 0.2
20/01:00am 10.9 10.7 9.0 88 1.0 CALM 0 4 0 2 1014.1 1013.2 0.2
20/12:30am 11.2 10.3 9.1 87 1.1 ESE 4 6 2 3 1014.4 1013.5 0.2
20/12:00am 11.2 11.0 9.1 87 1.1 CALM 0 4 0 2 1014.8 1013.9 0.2
 
Date/Time
WST
Temp
°C
App
Temp
°C
Dew
Point
Rel
Hum
%
Delta-T
°C
Wind Press
QNH
hPa
Press
MSL
hPa
Rain
since 9 am
mm
Dir
 
Spd
km/h
Gust
km/h
Spd
kts
Gust
kts
19/11:30pm 11.7 9.9 9.4 86 1.2 S 9 9 5 5 1015.1 1014.2 0.2
19/11:00pm 12.0 10.6 9.6 85 1.2 SSE 7 9 4 5 1015.2 1014.3 0.2
19/10:30pm 12.4 11.1 9.8 84 1.3 ESE 7 9 4 5 1015.3 1014.4 0.2
19/10:00pm 12.9 11.7 9.5 80 1.8 E 6 7 3 4 1015.2 1014.3 0.2
19/09:30pm 13.7 12.4 9.9 78 2.0 ESE 7 13 4 7 1015.4 1014.5 0.2
19/09:00pm 14.5 12.9 10.3 76 2.2 ESE 9 15 5 8 1015.4 1014.5 0.2
19/08:30pm 15.1 13.2 10.5 74 2.5 SE 11 17 6 9 1015.1 1014.2 0.2
19/08:00pm 15.8 13.2 10.8 72 2.7 SE 15 20 8 11 1014.7 1013.8 0.2
19/07:30pm 16.4 13.5 10.9 70 3.0 SSE 17 26 9 14 1014.3 1013.4 0.2

Other Formats:

Comma delimited format used in spreadsheet applications
http://www.bom.gov.au/fwo/IDW60801/IDW60801.94628.axf

JavaScript Object Notation format (JSON) in row-major order
http://www.bom.gov.au/fwo/IDW60801/IDW60801.94628.json